»·PEaware :: SWA1040 KSFO-KPDX

SWA1040 :: KSFO-KPDX

FLIGHT INFORMATION

Flight Status: Arrived
Operator:
Southwest Airlines
More flights by this operator :: More flights under this callsign
Pilot: Chris C. (20435)
Aircraft: BOEING 737-800
(B738)
More flights by this aircraft type
Origin: KSFO San Francisco Intl
United States
Destination: KPDX Portland Intl
United States
More flights between these airports :: More routes between these airports
Route: TRUKN2 GRTFL MACHU TMBRS2
File this flight plan on PilotEdge
Remarks:
Altitude:
(Current/Filed)
36,000ft
Speed:
(Current/Filed)
400kts
Departed: 21-Sep-18 09:18 PM
Arrived: 21-Sep-18 10:35 PM
Distance/Time
Traveled:
478nm/1:17
Distance/Time
To Go:
Arrived

Flight Plot

Page will automatically refresh every two minutes.


Map Options




Map Legend


Flown Route
Filed Route
Departure Airport
Arrival Airport
Navaid (VOR, NDB)
Fix

Horizontal Profiles

Position Reports

Time Latitude Longitude Heading Altitude Ground
Speed
21-Sep-18 21:00 37.612830 -122.383166 296 21ft 0kts
21-Sep-18 21:01 37.612830 -122.383166 296 21ft 0kts
21-Sep-18 21:02 37.612830 -122.383166 296 21ft 0kts
21-Sep-18 21:03 37.612830 -122.383166 296 21ft 0kts
21-Sep-18 21:04 37.612830 -122.383166 296 21ft 0kts
21-Sep-18 21:05 37.612830 -122.383166 296 21ft 0kts
21-Sep-18 21:06 37.612830 -122.383166 296 21ft 0kts
21-Sep-18 21:07 37.612830 -122.383166 296 21ft 0kts
21-Sep-18 21:08 37.612830 -122.383166 296 21ft 0kts
21-Sep-18 21:09 37.612830 -122.383166 296 21ft 0kts
21-Sep-18 21:10 37.612830 -122.383166 296 21ft 0kts
21-Sep-18 21:11 37.612797 -122.383084 297 21ft 2kts
21-Sep-18 21:12 37.612607 -122.382448 257 21ft 2kts
21-Sep-18 21:13 37.612800 -122.382160 207 21ft 0kts
21-Sep-18 21:14 37.612800 -122.382160 207 21ft 0kts
21-Sep-18 21:15 37.611117 -122.383299 207 21ft 22kts
21-Sep-18 21:16 37.609018 -122.384772 191 21ft 0kts
21-Sep-18 21:17 37.608545 -122.384101 115 21ft 2kts
21-Sep-18 21:18 37.608448 -122.382563 27 21ft 0kts
21-Sep-18 21:19 37.608448 -122.382563 27 21ft 0kts
21-Sep-18 21:20 37.614947 -122.378257 26 21ft 129kts
21-Sep-18 21:21 37.653922 -122.335232 52 2066ft 243kts
21-Sep-18 21:22 37.694951 -122.258245 53 5821ft 279kts
21-Sep-18 21:23 37.760874 -122.216686 359 9526ft 286kts
21-Sep-18 21:24 37.847216 -122.218225 358 12365ft 331kts
21-Sep-18 21:25 37.941020 -122.220623 358 15801ft 351kts
21-Sep-18 21:26 38.040840 -122.223245 358 19010ft 371kts
21-Sep-18 21:27 38.145175 -122.226004 357 21951ft 387kts
21-Sep-18 21:28 38.254712 -122.228923 357 24571ft 403kts
21-Sep-18 21:29 38.367833 -122.232510 354 27024ft 415kts
21-Sep-18 21:30 38.484150 -122.244953 354 29271ft 426kts
21-Sep-18 21:31 38.601270 -122.257187 354 31742ft 424kts
21-Sep-18 21:32 38.717667 -122.269335 353 33987ft 420kts
21-Sep-18 21:33 38.833731 -122.281473 353 35927ft 418kts
21-Sep-18 21:34 38.954016 -122.294200 353 35977ft 454kts
21-Sep-18 21:35 39.080702 -122.307572 353 35967ft 458kts
21-Sep-18 21:36 39.206399 -122.320862 353 35965ft 458kts
21-Sep-18 21:37 39.332823 -122.334283 353 35965ft 458kts
21-Sep-18 21:38 39.459073 -122.347736 353 35966ft 458kts
21-Sep-18 21:39 39.585808 -122.361294 353 35966ft 458kts
21-Sep-18 21:40 39.702800 -122.373858 353 35966ft 458kts
21-Sep-18 21:41 39.829313 -122.387494 353 35966ft 458kts
21-Sep-18 21:42 39.955808 -122.401183 353 35967ft 458kts
21-Sep-18 21:43 40.081741 -122.414863 353 35959ft 450kts
21-Sep-18 21:44 40.204660 -122.428252 353 35966ft 450kts
21-Sep-18 21:45 40.330683 -122.442074 353 35973ft 469kts
21-Sep-18 21:46 40.458813 -122.456141 353 35964ft 470kts
21-Sep-18 21:47 40.588179 -122.470396 353 35966ft 470kts
21-Sep-18 21:48 40.715509 -122.484479 353 35955ft 466kts
21-Sep-18 21:49 40.844967 -122.498865 353 35964ft 469kts
21-Sep-18 21:50 40.974258 -122.513281 353 35965ft 469kts
21-Sep-18 21:51 41.101303 -122.527499 353 36098ft 468kts
21-Sep-18 21:52 41.229913 -122.541950 353 36100ft 467kts
21-Sep-18 21:53 41.358639 -122.556468 353 36100ft 467kts
21-Sep-18 21:54 41.487832 -122.571095 353 36073ft 467kts
21-Sep-18 21:55 41.616519 -122.581565 355 36077ft 467kts
21-Sep-18 21:56 41.745904 -122.589825 355 36072ft 466kts
21-Sep-18 21:57 41.874947 -122.598221 355 36073ft 466kts
21-Sep-18 21:58 42.004153 -122.606680 355 36073ft 466kts
21-Sep-18 21:59 42.132851 -122.615145 355 36020ft 465kts
21-Sep-18 22:00 42.260476 -122.623604 355 36019ft 465kts
21-Sep-18 22:01 42.389629 -122.632213 355 36019ft 465kts
21-Sep-18 22:02 42.517975 -122.640805 355 36019ft 465kts
21-Sep-18 22:03 42.646880 -122.649471 355 36018ft 464kts
21-Sep-18 22:04 42.773467 -122.658039 355 36021ft 464kts
21-Sep-18 22:05 42.901957 -122.666777 355 36076ft 464kts
21-Sep-18 22:06 43.029990 -122.675519 355 36075ft 463kts
21-Sep-18 22:07 43.156298 -122.684179 355 36076ft 463kts
21-Sep-18 22:08 43.284425 -122.693000 355 36076ft 463kts
21-Sep-18 22:09 43.397308 -122.700801 355 36076ft 464kts
21-Sep-18 22:10 43.525826 -122.709674 355 36076ft 464kts
21-Sep-18 22:11 43.629779 -122.716843 354 34226ft 461kts
21-Sep-18 22:12 43.778844 -122.727222 355 31022ft 468kts
21-Sep-18 22:13 43.887282 -122.734808 355 28713ft 472kts
21-Sep-18 22:14 44.040618 -122.745569 355 25480ft 478kts
21-Sep-18 22:15 44.132553 -122.751989 355 24111ft 435kts
21-Sep-18 22:16 44.244470 -122.744096 2 24017ft 392kts
21-Sep-18 22:17 44.370078 -122.731586 2 22556ft 389kts
21-Sep-18 22:18 44.451105 -122.723529 2 20849ft 371kts
21-Sep-18 22:19 44.566917 -122.712018 2 18318ft 357kts
21-Sep-18 22:20 44.648332 -122.703846 2 16487ft 352kts
21-Sep-18 22:21 44.744850 -122.694131 2 14301ft 350kts
21-Sep-18 22:22 44.839842 -122.684607 4 12132ft 344kts
21-Sep-18 22:23 44.932761 -122.675254 4 11000ft 315kts
21-Sep-18 22:24 45.011892 -122.667235 4 11022ft 304kts
21-Sep-18 22:25 45.093872 -122.658884 4 11022ft 303kts
21-Sep-18 22:26 45.168543 -122.651209 3 9620ft 286kts
21-Sep-18 22:27 45.244715 -122.641767 13 8126ft 275kts
21-Sep-18 22:28 45.301751 -122.573898 50 6660ft 268kts
21-Sep-18 22:29 45.345743 -122.496520 51 5205ft 257kts
21-Sep-18 22:30 45.387394 -122.423015 51 5002ft 231kts
21-Sep-18 22:31 45.439221 -122.372943 24 3418ft 225kts
21-Sep-18 22:32 45.494243 -122.380955 325 2981ft 197kts
21-Sep-18 22:33 45.523774 -122.438992 297 2374ft 173kts
21-Sep-18 22:34 45.545230 -122.493828 297 1466ft 142kts
21-Sep-18 22:35 45.564028 -122.541765 298 733ft 138kts
21-Sep-18 22:36 45.582824 -122.589829 298 44ft 138kts
21-Sep-18 22:37 45.588722 -122.602394 342 37ft 11kts
21-Sep-18 22:38 45.589855 -122.600305 85 37ft 7kts
21-Sep-18 22:39 45.589868 -122.600071 85 37ft 0kts
21-Sep-18 22:40 45.589868 -122.600071 85 37ft 0kts
21-Sep-18 22:41 45.589868 -122.600071 85 37ft 0kts
21-Sep-18 22:42 45.589868 -122.600071 85 37ft 0kts
21-Sep-18 22:43 45.589868 -122.600071 85 37ft 0kts

Navigation Log

Ident Type
1. KSFO Airport
2. KPDX Airport